createdAt,value
2023-01-22T00:01:48.615Z,78.57
2023-01-22T00:04:17.895Z,78.66
2023-01-22T00:06:47.505Z,78.53
2023-01-22T00:09:16.830Z,78.42
2023-01-22T00:11:46.270Z,78.30
2023-01-22T00:14:15.487Z,78.31
2023-01-22T00:16:45.153Z,78.42
2023-01-22T00:19:15.944Z,78.50
2023-01-22T00:21:46.290Z,78.52
2023-01-22T00:24:15.783Z,78.63
2023-01-22T00:26:45.250Z,78.69
2023-01-22T00:29:14.569Z,78.53
2023-01-22T00:31:44.379Z,78.48
2023-01-22T00:34:15.066Z,78.34
2023-01-22T00:36:44.689Z,78.61
2023-01-22T00:39:13.903Z,78.54
2023-01-22T00:41:43.800Z,78.44
2023-01-22T00:44:12.909Z,78.42
2023-01-22T00:46:42.461Z,78.54
2023-01-22T00:49:11.641Z,78.50
2023-01-22T00:51:42.607Z,78.45
2023-01-22T00:54:12.320Z,78.26
2023-01-22T00:56:42.898Z,78.51
2023-01-22T00:59:12.103Z,78.35
2023-01-22T01:01:41.552Z,78.46
2023-01-22T01:04:10.789Z,78.46
2023-01-22T01:06:41.611Z,78.56
2023-01-22T01:09:10.894Z,78.68
2023-01-22T01:11:40.349Z,78.62
2023-01-22T01:14:09.627Z,78.92
2023-01-22T01:16:39.063Z,78.91
2023-01-22T01:19:10.831Z,78.70
2023-01-22T01:21:42.001Z,78.70
2023-01-22T01:24:11.863Z,78.54
2023-01-22T01:26:41.960Z,78.39
2023-01-22T01:29:12.993Z,78.75
2023-01-22T01:31:42.496Z,78.66
2023-01-22T01:34:11.989Z,78.81
2023-01-22T01:36:50.051Z,78.59
2023-01-22T01:39:19.735Z,78.46
2023-01-22T01:41:50.453Z,78.50
2023-01-22T01:44:22.028Z,78.82
2023-01-22T01:46:55.098Z,78.55
2023-01-22T01:49:29.804Z,78.66
2023-01-22T01:52:04.282Z,78.60
2023-01-22T01:54:33.939Z,78.54
2023-01-22T01:57:08.998Z,78.59
2023-01-22T01:59:39.926Z,78.64
2023-01-22T02:02:09.728Z,78.70
2023-01-22T02:04:38.920Z,78.82
2023-01-22T02:07:09.881Z,78.80
2023-01-22T02:09:39.171Z,78.98
2023-01-22T02:12:10.147Z,79.10
2023-01-22T02:14:42.887Z,78.68
2023-01-22T02:17:14.900Z,79.05
2023-01-22T02:19:45.001Z,79.05
2023-01-22T02:22:21.268Z,79.13
2023-01-22T02:24:51.021Z,78.90
2023-01-22T02:27:21.321Z,78.65
2023-01-22T02:29:52.139Z,78.82
2023-01-22T02:32:21.978Z,78.81
2023-01-22T02:34:51.537Z,78.84
2023-01-22T02:37:22.343Z,78.82
2023-01-22T02:39:51.651Z,78.79
2023-01-22T02:42:21.206Z,78.85
2023-01-22T02:44:53.028Z,78.78
2023-01-22T02:47:22.737Z,78.99
2023-01-22T02:49:52.099Z,78.90
2023-01-22T02:52:22.897Z,78.94
2023-01-22T02:54:52.209Z,79.31
2023-01-22T02:57:21.585Z,79.26
2023-01-22T02:59:50.891Z,78.85
2023-01-22T03:02:22.156Z,78.87
2023-01-22T03:04:52.513Z,79.01
2023-01-22T03:07:23.337Z,79.05
2023-01-22T03:09:52.455Z,78.70
2023-01-22T03:12:21.973Z,79.42
2023-01-22T03:15:08.391Z,79.19
2023-01-22T03:17:55.969Z,79.07
2023-01-22T03:20:42.629Z,78.73
2023-01-22T03:23:13.532Z,78.89
2023-01-22T03:25:43.449Z,78.73
2023-01-22T03:28:19.356Z,78.53
2023-01-22T03:31:21.578Z,79.12
2023-01-22T03:33:51.023Z,78.77
2023-01-22T03:36:20.073Z,78.59
2023-01-22T03:38:55.127Z,78.93
2023-01-22T03:41:26.416Z,78.80
2023-01-22T03:43:58.942Z,78.87
2023-01-22T03:46:34.820Z,79.08
2023-01-22T03:49:05.200Z,79.14
2023-01-22T03:51:34.902Z,78.93
2023-01-22T03:54:06.687Z,78.95
2023-01-22T03:56:35.861Z,79.05
2023-01-22T03:59:11.668Z,79.12
2023-01-22T04:01:40.882Z,78.83
2023-01-22T04:04:11.144Z,78.74
2023-01-22T04:06:40.324Z,78.79
2023-01-22T04:09:11.110Z,78.96
2023-01-22T04:11:45.387Z,78.61
2023-01-22T04:14:16.198Z,78.78
2023-01-22T04:17:00.396Z,78.58
2023-01-22T04:19:49.942Z,78.68
2023-01-22T04:22:41.742Z,78.70
2023-01-22T04:25:15.711Z,78.86
2023-01-22T04:27:46.510Z,78.84
2023-01-22T04:30:19.231Z,79.19
2023-01-22T04:32:51.710Z,79.12
2023-01-22T04:35:39.992Z,78.89
2023-01-22T04:38:12.711Z,78.87
2023-01-22T04:40:45.534Z,79.05
2023-01-22T04:43:14.819Z,78.85
2023-01-22T04:45:44.356Z,78.72
2023-01-22T04:48:14.098Z,79.10
2023-01-22T04:50:46.454Z,78.80
2023-01-22T04:53:15.897Z,78.78
2023-01-22T04:55:47.217Z,78.77
2023-01-22T04:58:16.574Z,78.57
2023-01-22T05:00:46.040Z,78.63
2023-01-22T05:03:15.219Z,78.51
2023-01-22T05:05:44.830Z,78.69
2023-01-22T05:08:14.372Z,78.76
2023-01-22T05:10:46.930Z,78.79
2023-01-22T05:13:22.392Z,78.88
2023-01-22T05:15:51.943Z,78.59
2023-01-22T05:18:21.262Z,78.63
2023-01-22T05:20:53.777Z,78.81
2023-01-22T05:23:25.197Z,78.42
2023-01-22T05:25:56.259Z,78.52
2023-01-22T05:28:38.030Z,78.70
2023-01-22T05:31:27.919Z,78.51
2023-01-22T05:34:20.493Z,78.65
2023-01-22T05:36:50.233Z,78.81
2023-01-22T05:39:24.133Z,78.65
2023-01-22T05:41:57.124Z,78.62
2023-01-22T05:44:27.075Z,78.75
2023-01-22T05:46:57.957Z,78.59
2023-01-22T05:49:48.206Z,78.49
2023-01-22T05:52:18.500Z,78.64
2023-01-22T05:54:47.670Z,78.58
2023-01-22T05:57:18.389Z,78.45
2023-01-22T05:59:47.747Z,78.66
2023-01-22T06:02:17.365Z,78.63
2023-01-22T06:04:47.114Z,78.62
2023-01-22T06:07:24.265Z,78.54
2023-01-22T06:09:53.303Z,78.53
2023-01-22T06:12:24.473Z,78.38
2023-01-22T06:14:54.238Z,78.21
2023-01-22T06:17:23.870Z,78.21
2023-01-22T06:19:57.880Z,78.24
2023-01-22T06:22:27.478Z,78.14
2023-01-22T06:24:59.676Z,78.22
2023-01-22T06:27:44.200Z,78.26
2023-01-22T06:30:14.211Z,78.33
2023-01-22T06:32:43.868Z,78.39
2023-01-22T06:35:14.443Z,78.13
2023-01-22T06:37:43.885Z,78.00
2023-01-22T06:40:14.625Z,77.97
2023-01-22T06:42:48.963Z,78.23
2023-01-22T06:45:19.301Z,78.22
2023-01-22T06:47:54.386Z,78.20
2023-01-22T06:50:23.449Z,78.32
2023-01-22T06:52:52.917Z,78.26
2023-01-22T06:55:22.031Z,78.31
2023-01-22T06:57:55.376Z,78.36
2023-01-22T07:00:25.263Z,78.28
2023-01-22T07:02:54.832Z,78.23
2023-01-22T07:05:24.740Z,78.31
2023-01-22T07:07:55.783Z,78.40
2023-01-22T07:10:25.033Z,78.44
2023-01-22T07:12:58.991Z,78.51
2023-01-22T07:15:28.863Z,78.51
2023-01-22T07:17:57.929Z,78.49
2023-01-22T07:20:26.968Z,78.54
2023-01-22T07:23:00.384Z,78.53
2023-01-22T07:25:29.878Z,78.39
2023-01-22T07:28:02.888Z,78.41
2023-01-22T07:30:32.482Z,78.38
2023-01-22T07:33:01.940Z,78.58
2023-01-22T07:35:31.599Z,78.38
2023-01-22T07:38:02.131Z,78.22
2023-01-22T07:40:32.111Z,78.54
2023-01-22T07:43:07.916Z,78.89
2023-01-22T07:45:37.933Z,78.70
2023-01-22T07:48:10.745Z,78.57
2023-01-22T07:50:40.612Z,78.51
2023-01-22T07:53:11.752Z,78.66
2023-01-22T07:55:41.743Z,78.54
2023-01-22T07:58:13.627Z,78.58
2023-01-22T08:00:42.919Z,78.39
2023-01-22T08:03:14.507Z,78.52
2023-01-22T08:05:44.725Z,78.45
2023-01-22T08:08:16.326Z,78.59
2023-01-22T08:10:47.157Z,78.51
2023-01-22T08:13:18.070Z,78.51
2023-01-22T08:15:47.998Z,78.45
2023-01-22T08:18:19.107Z,78.64
2023-01-22T08:20:49.509Z,78.65
2023-01-22T08:23:19.849Z,78.70
2023-01-22T08:25:50.415Z,78.62
2023-01-22T08:28:21.196Z,78.78
2023-01-22T08:30:50.474Z,78.87
2023-01-22T08:33:20.514Z,78.71
2023-01-22T08:35:50.159Z,78.70
2023-01-22T08:38:19.590Z,78.65
2023-01-22T08:40:51.180Z,78.65
2023-01-22T08:43:22.602Z,78.57
2023-01-22T08:45:52.405Z,78.46
2023-01-22T08:48:21.869Z,78.47
2023-01-22T08:50:51.231Z,78.65
2023-01-22T08:53:20.603Z,78.50
2023-01-22T08:55:53.248Z,78.60
2023-01-22T08:58:25.522Z,78.56
2023-01-22T09:00:54.915Z,78.34
2023-01-22T09:03:24.845Z,78.33
2023-01-22T09:05:54.145Z,78.31
2023-01-22T09:08:23.796Z,78.46
2023-01-22T09:10:53.064Z,78.35
2023-01-22T09:13:23.880Z,78.41
2023-01-22T09:15:58.462Z,78.39
2023-01-22T09:18:28.554Z,78.20
2023-01-22T09:20:58.233Z,78.21
2023-01-22T09:23:27.338Z,78.32
2023-01-22T09:25:56.572Z,78.43
2023-01-22T09:28:27.383Z,78.48
2023-01-22T09:30:56.795Z,78.26
2023-01-22T09:33:26.301Z,78.22
2023-01-22T09:35:55.733Z,78.23
2023-01-22T09:38:25.413Z,78.36
2023-01-22T09:40:57.781Z,78.10
2023-01-22T09:43:32.937Z,78.04
2023-01-22T09:46:07.217Z,77.98
2023-01-22T09:48:50.060Z,78.19
2023-01-22T09:51:22.318Z,78.26
2023-01-22T09:53:57.847Z,78.11
2023-01-22T09:56:35.128Z,78.34
2023-01-22T09:59:08.733Z,78.14
2023-01-22T10:01:38.825Z,78.18
2023-01-22T10:04:23.354Z,78.20
2023-01-22T10:06:53.971Z,77.94
2023-01-22T10:09:24.610Z,78.12
2023-01-22T10:11:56.142Z,78.08
2023-01-22T10:14:30.900Z,78.09
2023-01-22T10:17:03.660Z,78.16
2023-01-22T10:19:42.781Z,78.38
2023-01-22T10:22:19.576Z,78.43
2023-01-22T10:24:49.195Z,78.34
2023-01-22T10:27:21.290Z,78.33
2023-01-22T10:30:08.849Z,78.34
2023-01-22T10:32:39.994Z,77.98
2023-01-22T10:35:18.569Z,78.30
2023-01-22T10:37:50.078Z,78.23
2023-01-22T10:40:30.945Z,78.26
2023-01-22T10:43:11.866Z,78.37
2023-01-22T10:45:53.306Z,78.45
2023-01-22T10:48:23.345Z,78.18
2023-01-22T10:51:04.723Z,78.13
2023-01-22T10:53:36.977Z,78.40
2023-01-22T10:56:12.584Z,78.27
2023-01-22T10:58:49.093Z,78.33
2023-01-22T11:01:32.644Z,78.28
2023-01-22T11:04:12.299Z,78.29
2023-01-22T11:06:43.907Z,78.12
2023-01-22T11:09:17.621Z,78.21
2023-01-22T11:11:52.438Z,78.36
2023-01-22T11:14:27.227Z,78.11
2023-01-22T11:17:05.452Z,78.32
2023-01-22T11:19:41.816Z,78.29
2023-01-22T11:22:27.540Z,78.04
2023-01-22T11:24:57.097Z,78.23
2023-01-22T11:27:44.135Z,78.22
2023-01-22T11:30:45.778Z,78.35
2023-01-22T11:33:37.351Z,78.29
2023-01-22T11:36:14.530Z,78.19
2023-01-22T11:38:51.362Z,78.17
2023-01-22T11:41:35.818Z,78.26
2023-01-22T11:44:29.206Z,78.13
2023-01-22T11:47:23.944Z,78.32
2023-01-22T11:50:07.733Z,77.92
2023-01-22T11:52:49.872Z,78.01
2023-01-22T11:55:50.722Z,78.17
2023-01-22T11:58:29.649Z,78.09
2023-01-22T12:01:15.081Z,77.97
2023-01-22T12:04:09.335Z,77.65
2023-01-22T12:07:11.922Z,78.10
2023-01-22T12:09:50.822Z,78.07
2023-01-22T12:12:41.462Z,78.23
2023-01-22T12:15:36.697Z,78.28
2023-01-22T12:18:35.369Z,78.25
2023-01-22T12:21:09.376Z,78.16
2023-01-22T12:23:44.626Z,78.25
2023-01-22T12:26:19.286Z,78.34
2023-01-22T12:28:55.232Z,78.14
2023-01-22T12:31:31.475Z,78.27
2023-01-22T12:34:05.241Z,78.25
2023-01-22T12:36:35.796Z,78.20
2023-01-22T12:39:18.223Z,78.29
2023-01-22T12:41:56.172Z,78.15
2023-01-22T12:44:48.666Z,78.18
2023-01-22T12:47:23.923Z,78.12
2023-01-22T12:49:54.744Z,78.13
2023-01-22T12:52:34.164Z,78.13
2023-01-22T12:55:23.763Z,77.91
2023-01-22T12:57:52.972Z,78.08
2023-01-22T13:00:31.141Z,78.01
2023-01-22T13:03:00.840Z,77.91
2023-01-22T13:05:47.096Z,77.90
2023-01-22T13:08:41.989Z,77.80
2023-01-22T13:11:14.939Z,77.74
2023-01-22T13:13:48.322Z,77.87
2023-01-22T13:16:28.138Z,77.86
2023-01-22T13:19:00.673Z,77.84
2023-01-22T13:21:31.947Z,77.85
2023-01-22T13:24:04.081Z,77.83
2023-01-22T13:26:38.721Z,77.78
2023-01-22T13:29:20.435Z,77.72
2023-01-22T13:31:58.451Z,77.76
2023-01-22T13:34:28.908Z,77.79
2023-01-22T13:36:59.040Z,77.81
2023-01-22T13:39:30.852Z,77.64
2023-01-22T13:42:05.605Z,77.63
2023-01-22T13:44:38.839Z,77.61
2023-01-22T13:47:08.467Z,77.62
2023-01-22T13:49:44.393Z,77.69
2023-01-22T13:52:18.705Z,77.58
2023-01-22T13:54:54.890Z,77.55
2023-01-22T13:57:26.068Z,77.65
2023-01-22T13:59:56.893Z,77.50
2023-01-22T14:02:31.126Z,77.58
2023-01-22T14:05:00.893Z,77.47
2023-01-22T14:07:31.370Z,77.56
2023-01-22T14:10:14.151Z,77.59
2023-01-22T14:12:45.914Z,77.42
2023-01-22T14:15:16.892Z,77.55
2023-01-22T14:17:49.808Z,77.44
2023-01-22T14:20:20.722Z,77.47
2023-01-22T14:22:50.612Z,77.45
2023-01-22T14:25:19.693Z,77.37
2023-01-22T14:27:51.583Z,77.30
2023-01-22T14:30:22.733Z,77.38
2023-01-22T14:32:52.692Z,77.47
2023-01-22T14:35:24.501Z,77.39
2023-01-22T14:37:55.325Z,77.44
2023-01-22T14:40:26.609Z,77.34
2023-01-22T14:43:02.060Z,77.32
2023-01-22T14:45:31.918Z,77.36
2023-01-22T14:48:01.780Z,77.49
2023-01-22T14:50:31.341Z,77.35
2023-01-22T14:53:00.819Z,77.26
2023-01-22T14:55:29.911Z,77.30
2023-01-22T14:58:02.116Z,77.26
2023-01-22T15:00:31.894Z,77.35
2023-01-22T15:03:01.572Z,77.49
2023-01-22T15:05:31.496Z,77.20
2023-01-22T15:08:02.128Z,77.46
2023-01-22T15:10:31.632Z,77.16
2023-01-22T15:13:02.374Z,77.60
2023-01-22T15:15:31.616Z,77.33
2023-01-22T15:18:01.425Z,77.11
2023-01-22T15:20:31.152Z,77.45
2023-01-22T15:23:00.583Z,77.27
2023-01-22T15:25:29.891Z,77.41
2023-01-22T15:27:59.316Z,77.27
2023-01-22T15:30:29.981Z,77.30
2023-01-22T15:33:00.327Z,77.34
2023-01-22T15:35:29.477Z,77.32
2023-01-22T15:37:59.121Z,77.32
2023-01-22T15:40:28.541Z,77.27
2023-01-22T15:42:58.089Z,77.37
2023-01-22T15:45:30.724Z,77.18
2023-01-22T15:48:00.343Z,77.50
2023-01-22T15:50:29.912Z,77.53
2023-01-22T15:52:59.734Z,77.47
2023-01-22T15:55:30.173Z,77.50
2023-01-22T15:58:00.527Z,77.32
2023-01-22T16:00:31.735Z,77.36
2023-01-22T16:03:02.677Z,77.46
2023-01-22T16:05:31.906Z,77.42
2023-01-22T16:08:01.303Z,77.20
2023-01-22T16:10:30.771Z,77.41
2023-01-22T16:13:00.679Z,77.22
2023-01-22T16:15:31.152Z,77.34
2023-01-22T16:18:01.298Z,77.57
2023-01-22T16:20:30.407Z,77.37
2023-01-22T16:22:59.797Z,77.29
2023-01-22T16:25:29.117Z,77.31
2023-01-22T16:27:59.845Z,77.34
2023-01-22T16:30:30.474Z,77.44
2023-01-22T16:33:00.038Z,77.39
2023-01-22T16:35:29.339Z,77.40
2023-01-22T16:37:59.058Z,77.37
2023-01-22T16:40:28.251Z,77.43
2023-01-22T16:43:01.897Z,77.32
2023-01-22T16:45:32.645Z,77.34
2023-01-22T16:48:02.750Z,77.40
2023-01-22T16:50:32.963Z,77.43
2023-01-22T16:53:02.492Z,77.31
2023-01-22T16:55:31.874Z,77.65
2023-01-22T16:58:01.480Z,77.62
2023-01-22T17:00:33.586Z,77.35
2023-01-22T17:03:03.447Z,77.35
2023-01-22T17:05:32.888Z,77.49
2023-01-22T17:08:02.298Z,77.48
2023-01-22T17:10:32.856Z,77.29
2023-01-22T17:13:03.222Z,77.31
2023-01-22T17:15:33.777Z,77.53
2023-01-22T17:18:04.248Z,77.37
2023-01-22T17:20:33.509Z,77.48
2023-01-22T17:23:03.639Z,77.51
2023-01-22T17:25:32.943Z,77.51
2023-01-22T17:28:02.582Z,77.60
2023-01-22T17:30:33.302Z,77.70
2023-01-22T17:33:03.129Z,77.82
2023-01-22T17:35:32.502Z,77.73
2023-01-22T17:38:01.914Z,77.70
2023-01-22T17:40:31.468Z,77.73
2023-01-22T17:43:00.928Z,77.71
2023-01-22T17:45:30.967Z,77.44
2023-01-22T17:48:02.580Z,77.51
2023-01-22T17:50:32.408Z,77.37
2023-01-22T17:53:03.205Z,77.45
2023-01-22T17:55:32.967Z,77.51
2023-01-22T17:58:03.941Z,77.52
2023-01-22T18:00:37.160Z,77.57
2023-01-22T18:03:08.270Z,77.02
2023-01-22T18:05:40.704Z,77.22
2023-01-22T18:08:12.361Z,77.23
2023-01-22T18:10:41.983Z,76.82
2023-01-22T18:13:12.059Z,76.78
2023-01-22T18:15:45.864Z,77.18
2023-01-22T18:18:17.421Z,76.58
2023-01-22T18:20:47.058Z,77.11
2023-01-22T18:23:17.662Z,76.94
2023-01-22T18:25:50.519Z,77.11
2023-01-22T18:28:23.616Z,76.59
2023-01-22T18:30:54.463Z,76.34
2023-01-22T18:33:26.016Z,77.10
2023-01-22T18:35:55.627Z,76.35
2023-01-22T18:38:27.841Z,76.61
2023-01-22T18:40:57.967Z,76.97
2023-01-22T18:43:27.876Z,76.85
2023-01-22T18:45:57.590Z,76.57
2023-01-22T18:48:28.510Z,76.85
2023-01-22T18:50:58.163Z,76.39
2023-01-22T18:53:32.643Z,76.67
2023-01-22T18:56:03.241Z,76.23
2023-01-22T18:58:34.341Z,76.12
2023-01-22T19:01:11.731Z,75.92
2023-01-22T19:03:43.919Z,76.52
2023-01-22T19:06:16.955Z,76.84
2023-01-22T19:08:50.982Z,76.20
2023-01-22T19:11:20.638Z,76.53
2023-01-22T19:13:53.201Z,75.75
2023-01-22T19:16:25.101Z,75.85
2023-01-22T19:18:58.261Z,76.03
2023-01-22T19:21:29.944Z,75.66
2023-01-22T19:24:01.936Z,75.56
2023-01-22T19:26:35.356Z,75.29
2023-01-22T19:29:07.441Z,75.52
2023-01-22T19:31:38.612Z,75.73
2023-01-22T19:34:10.202Z,75.25
2023-01-22T19:36:40.435Z,75.88
2023-01-22T19:39:13.035Z,76.23
2023-01-22T19:41:43.205Z,76.22
2023-01-22T19:44:13.605Z,76.12
2023-01-22T19:46:43.115Z,76.46
2023-01-22T19:49:14.598Z,76.33
2023-01-22T19:51:44.248Z,76.36
2023-01-22T19:54:14.687Z,76.49
2023-01-22T19:56:45.830Z,76.59
2023-01-22T19:59:20.665Z,76.47
2023-01-22T20:01:52.300Z,76.20
2023-01-22T20:04:26.103Z,76.36
2023-01-22T20:06:58.637Z,76.12
2023-01-22T20:09:29.209Z,76.21
2023-01-22T20:12:01.867Z,76.54
2023-01-22T20:14:34.486Z,76.39
2023-01-22T20:17:05.292Z,76.50
2023-01-22T20:19:39.603Z,76.54
2023-01-22T20:22:10.932Z,76.37
2023-01-22T20:24:44.208Z,76.50
2023-01-22T20:27:13.930Z,76.73
2023-01-22T20:29:44.091Z,76.46
2023-01-22T20:32:14.236Z,76.37
2023-01-22T20:34:49.055Z,76.59
2023-01-22T20:37:18.877Z,76.32
2023-01-22T20:39:48.661Z,76.13
2023-01-22T20:42:18.302Z,76.48
2023-01-22T20:44:48.072Z,76.30
2023-01-22T20:47:17.363Z,76.55
2023-01-22T20:49:48.663Z,76.41
2023-01-22T20:52:21.103Z,76.72
2023-01-22T20:55:01.356Z,76.21
2023-01-22T20:57:34.212Z,76.40
2023-01-22T21:00:04.873Z,76.55
2023-01-22T21:02:35.563Z,76.64
2023-01-22T21:05:06.840Z,76.52
2023-01-22T21:07:38.616Z,76.54
2023-01-22T21:10:09.354Z,76.43
2023-01-22T21:12:42.972Z,76.30
2023-01-22T21:15:13.023Z,76.35
2023-01-22T21:17:42.408Z,76.69
2023-01-22T21:20:14.486Z,76.59
2023-01-22T21:22:45.023Z,76.51
2023-01-22T21:25:14.324Z,76.71
2023-01-22T21:27:43.641Z,76.66
2023-01-22T21:30:15.314Z,75.96
2023-01-22T21:32:45.165Z,76.40
2023-01-22T21:35:16.075Z,76.04
2023-01-22T21:37:45.946Z,76.62
2023-01-22T21:40:15.679Z,76.48
2023-01-22T21:43:02.204Z,76.46
2023-01-22T21:45:49.196Z,76.49
2023-01-22T21:48:18.581Z,76.27
2023-01-22T21:50:49.407Z,76.27
2023-01-22T21:53:18.605Z,76.48
2023-01-22T21:55:52.655Z,76.51
2023-01-22T21:58:22.078Z,76.52
2023-01-22T22:00:51.615Z,76.08
2023-01-22T22:03:20.748Z,76.51
2023-01-22T22:06:02.011Z,76.31
2023-01-22T22:08:32.018Z,76.56
2023-01-22T22:11:03.704Z,75.89
2023-01-22T22:13:33.440Z,76.16
2023-01-22T22:16:03.954Z,76.43
2023-01-22T22:18:33.336Z,76.51
2023-01-22T22:21:07.278Z,76.59
2023-01-22T22:23:39.104Z,76.38
2023-01-22T22:26:09.716Z,76.38
2023-01-22T22:28:39.016Z,76.55
2023-01-22T22:31:11.889Z,76.46
2023-01-22T22:33:41.238Z,76.11
2023-01-22T22:36:13.312Z,76.19
2023-01-22T22:38:42.832Z,76.40
2023-01-22T22:41:14.729Z,76.44
2023-01-22T22:43:46.502Z,76.25
2023-01-22T22:46:18.351Z,76.32
2023-01-22T22:48:48.950Z,76.38
2023-01-22T22:51:22.360Z,76.55
2023-01-22T22:53:55.113Z,76.46
2023-01-22T22:56:25.159Z,76.65
2023-01-22T22:58:55.347Z,76.32
2023-01-22T23:01:26.457Z,76.05
2023-01-22T23:03:56.230Z,76.20
2023-01-22T23:06:29.087Z,76.55
2023-01-22T23:09:12.066Z,76.51
2023-01-22T23:11:41.711Z,75.97
2023-01-22T23:14:11.835Z,75.99
2023-01-22T23:16:44.832Z,76.24
2023-01-22T23:19:19.313Z,76.26
2023-01-22T23:21:51.825Z,76.42
2023-01-22T23:24:21.068Z,76.08
2023-01-22T23:26:51.256Z,76.27
2023-01-22T23:29:21.968Z,76.32
2023-01-22T23:31:53.065Z,76.31
2023-01-22T23:34:23.609Z,76.16
2023-01-22T23:36:54.556Z,76.29
2023-01-22T23:39:24.190Z,76.21
2023-01-22T23:41:53.601Z,76.47
2023-01-22T23:44:22.795Z,76.19
2023-01-22T23:46:52.184Z,76.48
2023-01-22T23:49:21.592Z,76.44
2023-01-22T23:51:50.971Z,76.35
2023-01-22T23:54:21.477Z,76.50
2023-01-22T23:56:50.970Z,76.15
2023-01-22T23:59:20.189Z,76.28
